createdAt,value
2019-02-20T00:00:06.373Z,99.90
2019-02-20T00:02:34.929Z,99.90
2019-02-20T00:05:03.698Z,99.90
2019-02-20T00:07:32.278Z,99.90
2019-02-20T00:10:00.852Z,99.90
2019-02-20T00:12:29.418Z,99.90
2019-02-20T00:14:58.021Z,99.90
2019-02-20T00:17:26.779Z,99.90
2019-02-20T00:19:55.338Z,99.90
2019-02-20T00:22:23.909Z,99.90
2019-02-20T00:24:52.490Z,99.90
2019-02-20T00:27:21.059Z,99.90
2019-02-20T00:29:49.628Z,99.90
2019-02-20T00:32:18.193Z,99.90
2019-02-20T00:34:46.783Z,99.90
2019-02-20T00:37:15.346Z,99.90
2019-02-20T00:39:43.934Z,99.90
2019-02-20T00:42:12.506Z,99.90
2019-02-20T00:44:42.718Z,99.90
2019-02-20T00:47:15.760Z,99.90
2019-02-20T00:49:44.534Z,99.90
2019-02-20T00:52:31.225Z,99.90
2019-02-20T00:54:59.830Z,99.90
2019-02-20T00:57:28.411Z,99.90
2019-02-20T00:59:56.973Z,99.90
2019-02-20T01:02:25.558Z,99.90
2019-02-20T01:04:54.118Z,99.90
2019-02-20T01:07:23.992Z,99.90
2019-02-20T01:09:52.546Z,99.90
2019-02-20T01:12:21.285Z,99.90
2019-02-20T01:14:49.864Z,99.90
2019-02-20T01:17:18.430Z,99.90
2019-02-20T01:19:47.018Z,99.90
2019-02-20T01:22:15.586Z,99.90
2019-02-20T01:24:44.172Z,99.90
2019-02-20T01:27:12.814Z,99.90
2019-02-20T01:29:41.379Z,99.90
2019-02-20T01:32:10.029Z,99.90
2019-02-20T01:34:38.673Z,99.90
2019-02-20T01:37:07.253Z,99.90
2019-02-20T01:39:35.820Z,99.90
2019-02-20T01:42:04.466Z,99.90
2019-02-20T01:44:33.034Z,99.90
2019-02-20T01:47:01.624Z,99.90
2019-02-20T01:49:30.193Z,99.90
2019-02-20T01:51:58.757Z,99.90
2019-02-20T01:54:27.380Z,99.90
2019-02-20T01:56:57.219Z,99.90
2019-02-20T01:59:25.927Z,99.90
2019-02-20T02:01:54.582Z,99.90
2019-02-20T02:04:23.303Z,99.90
2019-02-20T02:06:51.942Z,99.90
2019-02-20T02:09:20.529Z,99.90
2019-02-20T02:11:49.156Z,99.90
2019-02-20T02:14:18.331Z,99.90
2019-02-20T02:16:46.963Z,99.90
2019-02-20T02:19:15.529Z,99.90
2019-02-20T02:21:44.106Z,99.90
2019-02-20T02:24:12.670Z,99.90
2019-02-20T02:26:41.318Z,99.90
2019-02-20T02:29:09.884Z,99.90
2019-02-20T02:31:38.601Z,99.90
2019-02-20T02:34:07.167Z,99.90
2019-02-20T02:36:35.750Z,99.90
2019-02-20T02:39:05.165Z,99.90
2019-02-20T02:41:35.019Z,99.90
2019-02-20T02:44:03.629Z,99.90
2019-02-20T02:46:32.173Z,99.90
2019-02-20T02:49:00.763Z,99.90
2019-02-20T02:51:29.388Z,99.90
2019-02-20T02:53:57.923Z,99.90
2019-02-20T02:56:26.502Z,99.90
2019-02-20T02:58:55.106Z,99.90
2019-02-20T03:01:23.681Z,99.90
2019-02-20T03:03:52.254Z,99.90
2019-02-20T03:06:20.831Z,99.90
2019-02-20T03:08:49.438Z,99.90
2019-02-20T03:11:18.018Z,99.90
2019-02-20T03:13:46.587Z,99.90
2019-02-20T03:16:15.242Z,99.90
2019-02-20T03:18:43.802Z,99.90
2019-02-20T03:21:12.619Z,99.90
2019-02-20T03:23:41.182Z,99.90
2019-02-20T03:26:09.751Z,99.90
2019-02-20T03:28:40.167Z,99.90
2019-02-20T03:31:08.544Z,99.90
2019-02-20T03:33:37.119Z,99.90
2019-02-20T03:36:05.687Z,99.90
2019-02-20T03:38:34.302Z,99.90
2019-02-20T03:41:02.882Z,99.90
2019-02-20T03:43:31.582Z,99.90
2019-02-20T03:46:00.148Z,99.90
2019-02-20T03:48:28.731Z,99.90
2019-02-20T03:50:57.307Z,99.90
2019-02-20T03:53:25.878Z,99.90
2019-02-20T03:55:54.728Z,99.90
2019-02-20T03:58:23.359Z,99.90
2019-02-20T04:00:51.934Z,99.90
2019-02-20T04:03:20.498Z,99.90
2019-02-20T04:05:49.079Z,99.90
2019-02-20T04:08:17.647Z,99.90
2019-02-20T04:10:46.335Z,99.90
2019-02-20T04:13:14.905Z,99.90
2019-02-20T04:15:43.549Z,99.90
2019-02-20T04:18:12.127Z,99.90
2019-02-20T04:20:40.695Z,99.90
2019-02-20T04:23:09.266Z,99.90
2019-02-20T04:25:37.902Z,99.90
2019-02-20T04:28:06.516Z,99.90
2019-02-20T04:30:35.049Z,99.90
2019-02-20T04:33:03.811Z,99.90
2019-02-20T04:35:32.373Z,99.90
2019-02-20T04:38:00.938Z,99.90
2019-02-20T04:40:29.583Z,99.90
2019-02-20T04:42:58.587Z,99.90
2019-02-20T04:45:27.237Z,99.90
2019-02-20T04:47:55.806Z,99.90
2019-02-20T04:50:24.382Z,99.90
2019-02-20T04:52:53.027Z,99.90
2019-02-20T04:55:21.634Z,99.90
2019-02-20T04:58:04.983Z,99.90
2019-02-20T05:00:33.595Z,99.90
2019-02-20T05:03:02.172Z,99.90
2019-02-20T05:05:30.730Z,99.90
2019-02-20T05:07:59.314Z,99.90
2019-02-20T05:10:27.880Z,99.90
2019-02-20T05:12:56.460Z,99.90
2019-02-20T05:15:25.027Z,99.90
2019-02-20T05:17:53.598Z,99.90
2019-02-20T05:20:22.170Z,99.90
2019-02-20T05:22:50.730Z,99.90
2019-02-20T05:25:19.311Z,99.90
2019-02-20T05:27:47.874Z,99.90
2019-02-20T05:30:16.446Z,99.90
2019-02-20T05:32:45.019Z,99.90
2019-02-20T05:35:15.127Z,99.90
2019-02-20T05:37:45.231Z,99.90
2019-02-20T05:40:15.342Z,99.90
2019-02-20T05:42:43.911Z,99.90
2019-02-20T05:45:14.205Z,99.90
2019-02-20T05:47:42.849Z,99.90
2019-02-20T05:50:11.551Z,99.90
2019-02-20T05:52:40.128Z,99.90
2019-02-20T05:55:08.830Z,99.90
2019-02-20T05:57:37.411Z,99.90
2019-02-20T06:00:09.516Z,99.90
2019-02-20T06:02:38.164Z,99.90
2019-02-20T06:05:07.371Z,99.90
2019-02-20T06:07:35.959Z,99.90
2019-02-20T06:10:05.963Z,99.90
2019-02-20T06:12:34.538Z,99.90
2019-02-20T06:15:03.174Z,99.90
2019-02-20T06:17:32.278Z,99.90
2019-02-20T06:20:00.855Z,99.90
2019-02-20T06:22:29.423Z,99.90
2019-02-20T06:24:57.994Z,99.90
2019-02-20T06:27:26.562Z,99.80
2019-02-20T06:29:55.166Z,99.40
2019-02-20T06:32:24.206Z,99.10
2019-02-20T06:34:52.891Z,98.90
2019-02-20T06:37:21.538Z,98.80
2019-02-20T06:39:50.104Z,98.70
2019-02-20T06:42:18.746Z,98.50
2019-02-20T06:44:47.384Z,98.30
2019-02-20T06:47:16.001Z,98.30
2019-02-20T06:49:44.560Z,98.10
2019-02-20T06:52:13.151Z,97.70
2019-02-20T06:54:41.715Z,97.80
2019-02-20T06:57:10.390Z,97.50
2019-02-20T06:59:38.970Z,97.10
2019-02-20T07:02:07.570Z,97.30
2019-02-20T07:04:36.146Z,96.80
2019-02-20T07:07:14.045Z,96.60
2019-02-20T07:10:02.839Z,96.50
2019-02-20T07:12:40.009Z,96.60
2019-02-20T07:15:11.682Z,95.40
2019-02-20T07:17:45.846Z,95.80
2019-02-20T07:20:44.857Z,93.70
2019-02-20T07:23:34.589Z,90.40
2019-02-20T07:26:21.146Z,81.80
2019-02-20T07:29:04.814Z,73.60
2019-02-20T07:31:33.408Z,68.30
2019-02-20T07:34:01.966Z,68.20
2019-02-20T07:36:30.550Z,68.30
2019-02-20T07:38:59.130Z,68.20
2019-02-20T07:41:27.695Z,69.30
2019-02-20T07:43:56.310Z,67.00
2019-02-20T07:46:24.874Z,59.30
2019-02-20T07:48:53.458Z,56.90
2019-02-20T07:51:22.045Z,54.00
2019-02-20T07:53:50.734Z,50.30
2019-02-20T07:56:19.316Z,50.00
2019-02-20T07:58:47.878Z,46.50
2019-02-20T08:01:16.474Z,43.70
2019-02-20T08:03:45.044Z,42.00
2019-02-20T08:06:13.637Z,39.20
2019-02-20T08:08:42.189Z,39.20
2019-02-20T08:11:10.869Z,36.90
2019-02-20T08:13:39.679Z,35.10
2019-02-20T08:16:08.415Z,34.50
2019-02-20T08:18:37.037Z,33.60
2019-02-20T08:21:05.621Z,32.30
2019-02-20T08:23:34.204Z,31.90
2019-02-20T08:26:02.805Z,33.10
2019-02-20T08:28:31.355Z,31.10
2019-02-20T08:30:59.919Z,29.30
2019-02-20T08:33:28.535Z,29.70
2019-02-20T08:35:57.112Z,29.50
2019-02-20T08:38:25.674Z,29.60
2019-02-20T08:40:54.262Z,30.40
2019-02-20T08:43:22.874Z,28.80
2019-02-20T08:45:51.422Z,29.40
2019-02-20T08:48:19.997Z,29.70
2019-02-20T08:50:48.659Z,28.80
2019-02-20T08:53:17.375Z,29.40
2019-02-20T08:55:45.976Z,28.90
2019-02-20T08:58:14.655Z,28.90
2019-02-20T09:00:43.241Z,27.30
2019-02-20T09:03:11.822Z,28.20
2019-02-20T09:05:40.466Z,27.00
2019-02-20T09:08:09.046Z,27.90
2019-02-20T09:10:37.698Z,28.10
2019-02-20T09:13:06.345Z,26.80
2019-02-20T09:15:34.918Z,27.20
2019-02-20T09:18:03.591Z,28.10
2019-02-20T09:20:32.142Z,27.50
2019-02-20T09:23:00.731Z,27.50
2019-02-20T09:25:29.298Z,26.20
2019-02-20T09:27:57.871Z,25.20
2019-02-20T09:30:28.848Z,26.20
2019-02-20T09:32:56.674Z,24.60
2019-02-20T09:35:25.327Z,25.10
2019-02-20T09:37:53.904Z,25.30
2019-02-20T09:40:22.478Z,25.30
2019-02-20T09:42:53.554Z,26.40
2019-02-20T09:45:22.269Z,27.00
2019-02-20T09:47:50.838Z,26.50
2019-02-20T09:50:19.487Z,25.10
2019-02-20T09:52:52.342Z,27.50
2019-02-20T09:55:18.286Z,28.90
2019-02-20T09:57:47.010Z,30.10
2019-02-20T10:00:19.509Z,29.90
2019-02-20T10:02:48.154Z,31.30
2019-02-20T10:05:16.726Z,30.80
2019-02-20T10:07:45.386Z,32.40
2019-02-20T10:10:14.038Z,32.80
2019-02-20T10:12:42.683Z,32.10
2019-02-20T10:15:18.831Z,33.90
2019-02-20T10:17:47.570Z,33.60
2019-02-20T10:20:16.217Z,33.00
2019-02-20T10:22:44.786Z,32.80
2019-02-20T10:25:13.838Z,34.60
2019-02-20T10:27:42.406Z,31.80
2019-02-20T10:30:13.929Z,32.60
2019-02-20T10:32:42.498Z,32.60
2019-02-20T10:35:11.508Z,32.80
2019-02-20T10:37:40.226Z,33.20
2019-02-20T10:40:10.238Z,32.80
2019-02-20T10:42:38.818Z,34.20
2019-02-20T10:45:12.331Z,35.60
2019-02-20T10:47:40.977Z,36.60
2019-02-20T10:50:11.777Z,37.10
2019-02-20T10:52:40.356Z,36.40
2019-02-20T10:55:09.870Z,36.80
2019-02-20T10:57:38.628Z,37.10
2019-02-20T11:00:23.582Z,39.00
2019-02-20T11:02:44.741Z,36.20
2019-02-20T11:05:13.309Z,36.20
2019-02-20T11:07:41.885Z,35.60
2019-02-20T11:10:10.605Z,36.40
2019-02-20T11:12:39.246Z,36.10
2019-02-20T11:15:08.571Z,36.40
2019-02-20T11:17:37.473Z,36.90
2019-02-20T11:20:11.049Z,36.80
2019-02-20T11:22:39.689Z,36.60
2019-02-20T11:25:11.086Z,37.00
2019-02-20T11:27:39.724Z,35.50
2019-02-20T11:30:26.026Z,36.10
2019-02-20T11:32:54.671Z,38.10
2019-02-20T11:35:23.242Z,36.80
2019-02-20T11:37:51.825Z,36.50
2019-02-20T11:40:20.530Z,37.20
2019-02-20T11:42:49.117Z,38.90
2019-02-20T11:45:18.121Z,38.80
2019-02-20T11:47:46.714Z,38.30
2019-02-20T11:50:15.439Z,38.40
2019-02-20T11:52:44.014Z,37.30
2019-02-20T11:55:13.938Z,37.30
2019-02-20T11:57:42.584Z,36.80
2019-02-20T12:00:18.199Z,36.10
2019-02-20T12:02:46.907Z,36.20
2019-02-20T12:05:15.489Z,36.50
2019-02-20T12:07:44.133Z,36.60
2019-02-20T12:10:17.702Z,38.00
2019-02-20T12:12:46.326Z,35.80
2019-02-20T12:15:15.079Z,36.90
2019-02-20T12:17:43.709Z,34.60
2019-02-20T12:20:12.414Z,33.70
2019-02-20T12:22:41.125Z,33.60
2019-02-20T12:25:10.885Z,35.20
2019-02-20T12:27:39.621Z,33.80
2019-02-20T12:30:10.750Z,34.00
2019-02-20T12:32:39.597Z,32.00
2019-02-20T12:35:09.303Z,32.40
2019-02-20T12:37:38.026Z,33.00
2019-02-20T12:40:11.166Z,32.10
2019-02-20T12:42:39.753Z,31.50
2019-02-20T12:45:09.369Z,31.30
2019-02-20T12:47:37.938Z,31.20
2019-02-20T12:50:09.464Z,31.30
2019-02-20T12:52:38.081Z,31.30
2019-02-20T12:55:07.954Z,31.70
2019-02-20T12:57:36.587Z,32.50
2019-02-20T13:00:10.838Z,32.70
2019-02-20T13:02:39.586Z,34.20
2019-02-20T13:05:08.632Z,32.90
2019-02-20T13:07:37.194Z,33.70
2019-02-20T13:10:07.509Z,35.40
2019-02-20T13:12:36.221Z,35.10
2019-02-20T13:15:07.131Z,35.40
2019-02-20T13:17:35.708Z,36.70
2019-02-20T13:20:05.410Z,37.90
2019-02-20T13:22:34.022Z,37.20
2019-02-20T13:25:04.089Z,36.20
2019-02-20T13:27:32.810Z,37.40
2019-02-20T13:30:01.393Z,36.80
2019-02-20T13:32:29.959Z,35.70
2019-02-20T13:34:58.538Z,37.70
2019-02-20T13:37:27.102Z,37.40
2019-02-20T13:39:55.754Z,39.00
2019-02-20T13:42:24.315Z,38.90
2019-02-20T13:44:53.839Z,39.40
2019-02-20T13:47:22.558Z,39.90
2019-02-20T13:49:51.154Z,38.90
2019-02-20T13:52:19.718Z,39.40
2019-02-20T13:54:49.042Z,38.80
2019-02-20T13:57:17.822Z,37.50
2019-02-20T13:59:46.526Z,39.10
2019-02-20T14:02:15.130Z,37.20
2019-02-20T14:04:43.762Z,39.00
2019-02-20T14:07:12.338Z,40.30
2019-02-20T14:09:40.901Z,38.90
2019-02-20T14:12:09.651Z,40.50
2019-02-20T14:14:38.922Z,39.30
2019-02-20T14:17:07.491Z,40.40
2019-02-20T14:19:36.070Z,39.90
2019-02-20T14:22:04.710Z,39.30
2019-02-20T14:24:33.282Z,39.50
2019-02-20T14:27:10.268Z,40.50
2019-02-20T14:29:32.141Z,40.40
2019-02-20T14:32:00.716Z,40.20
2019-02-20T14:34:29.289Z,41.90
2019-02-20T14:36:57.861Z,43.70
2019-02-20T14:39:26.444Z,44.90
2019-02-20T14:41:55.034Z,46.20
2019-02-20T14:44:23.671Z,45.30
2019-02-20T14:46:52.554Z,46.70
2019-02-20T14:49:21.117Z,46.50
2019-02-20T14:51:49.770Z,48.90
2019-02-20T14:54:18.398Z,49.70
2019-02-20T14:56:47.075Z,49.40
2019-02-20T14:59:15.735Z,52.30
2019-02-20T15:01:44.406Z,53.10
2019-02-20T15:04:13.174Z,55.00
2019-02-20T15:06:41.746Z,56.10
2019-02-20T15:09:10.319Z,56.70
2019-02-20T15:11:38.890Z,57.50
2019-02-20T15:14:07.648Z,58.70
2019-02-20T15:16:36.262Z,59.70
2019-02-20T15:19:05.216Z,63.30
2019-02-20T15:21:33.778Z,63.70
2019-02-20T15:24:02.358Z,65.00
2019-02-20T15:26:30.922Z,66.30
2019-02-20T15:28:59.491Z,68.80
2019-02-20T15:31:33.799Z,70.40
2019-02-20T15:33:58.278Z,71.70
2019-02-20T15:36:27.222Z,75.30
2019-02-20T15:38:55.866Z,76.10
2019-02-20T15:41:24.446Z,79.50
2019-02-20T15:43:53.014Z,81.10
2019-02-20T15:46:21.601Z,82.70
2019-02-20T15:48:50.186Z,83.90
2019-02-20T15:51:18.752Z,85.20
2019-02-20T15:53:47.381Z,86.90
2019-02-20T15:56:16.014Z,88.10
2019-02-20T15:58:44.590Z,90.00
2019-02-20T16:01:13.303Z,90.00
2019-02-20T16:03:41.874Z,90.30
2019-02-20T16:06:10.437Z,91.30
2019-02-20T16:08:39.350Z,91.20
2019-02-20T16:11:07.917Z,91.80
2019-02-20T16:13:36.483Z,92.00
2019-02-20T16:16:05.130Z,92.50
2019-02-20T16:18:33.766Z,93.10
2019-02-20T16:21:02.413Z,93.30
2019-02-20T16:23:31.055Z,93.60
2019-02-20T16:25:59.930Z,93.50
2019-02-20T16:28:33.775Z,94.00
2019-02-20T16:30:58.721Z,94.30
2019-02-20T16:33:27.283Z,94.10
2019-02-20T16:35:55.852Z,94.20
2019-02-20T16:38:24.527Z,94.40
2019-02-20T16:40:53.166Z,94.60
2019-02-20T16:43:21.743Z,94.80
2019-02-20T16:45:50.478Z,94.80
2019-02-20T16:48:19.071Z,95.30
2019-02-20T16:50:47.746Z,95.60
2019-02-20T16:53:16.331Z,95.80
2019-02-20T16:55:44.966Z,95.90
2019-02-20T16:58:14.051Z,96.10
2019-02-20T17:00:42.682Z,95.90
2019-02-20T17:03:11.314Z,96.50
2019-02-20T17:05:39.971Z,96.60
2019-02-20T17:08:08.605Z,96.40
2019-02-20T17:10:37.254Z,96.50
2019-02-20T17:13:06.072Z,96.60
2019-02-20T17:15:34.986Z,96.70
2019-02-20T17:18:03.622Z,96.70
2019-02-20T17:20:32.478Z,96.70
2019-02-20T17:23:01.058Z,96.60
2019-02-20T17:25:29.695Z,96.20
2019-02-20T17:28:05.460Z,96.40
2019-02-20T17:30:28.792Z,96.60
2019-02-20T17:32:57.512Z,96.60
2019-02-20T17:35:26.137Z,97.00
2019-02-20T17:37:54.859Z,97.50
2019-02-20T17:40:23.507Z,97.10
2019-02-20T17:42:52.182Z,97.20
2019-02-20T17:45:20.830Z,97.40
2019-02-20T17:47:49.465Z,97.40
2019-02-20T17:50:23.514Z,97.50
2019-02-20T17:52:52.089Z,97.50
2019-02-20T17:55:20.738Z,97.20
2019-02-20T17:57:49.310Z,97.20
2019-02-20T18:00:20.171Z,97.20
2019-02-20T18:02:48.878Z,97.40
2019-02-20T18:05:17.526Z,97.70
2019-02-20T18:07:50.798Z,97.40
2019-02-20T18:10:16.379Z,97.40
2019-02-20T18:12:45.026Z,97.70
2019-02-20T18:15:14.334Z,98.00
2019-02-20T18:17:42.993Z,98.20
2019-02-20T18:20:11.930Z,98.30
2019-02-20T18:22:40.519Z,98.20
2019-02-20T18:25:10.729Z,98.20
2019-02-20T18:27:39.581Z,98.50
2019-02-20T18:30:11.304Z,99.00
2019-02-20T18:32:39.981Z,98.60
2019-02-20T18:35:13.819Z,98.60
2019-02-20T18:37:42.560Z,98.90
2019-02-20T18:40:15.470Z,98.80
2019-02-20T18:42:44.102Z,98.80
2019-02-20T18:45:15.103Z,98.90
2019-02-20T18:47:43.810Z,98.80
2019-02-20T18:50:18.213Z,98.70
2019-02-20T18:52:46.761Z,98.50
2019-02-20T18:55:15.429Z,98.60
2019-02-20T18:57:44.003Z,98.60
2019-02-20T19:00:15.718Z,98.50
2019-02-20T19:02:44.541Z,98.40
2019-02-20T19:05:13.443Z,98.40
2019-02-20T19:07:42.064Z,98.40
2019-02-20T19:10:14.275Z,98.40
2019-02-20T19:12:57.810Z,98.70
2019-02-20T19:15:36.638Z,98.20
2019-02-20T19:18:23.364Z,97.80
2019-02-20T19:21:01.132Z,97.80
2019-02-20T19:23:55.523Z,97.90
2019-02-20T19:26:44.073Z,98.10
2019-02-20T19:29:21.868Z,98.30
2019-02-20T19:32:02.123Z,98.80
2019-02-20T19:34:45.672Z,98.60
2019-02-20T19:37:26.288Z,98.90
2019-02-20T19:40:20.988Z,98.10
2019-02-20T19:42:58.149Z,98.40
2019-02-20T19:46:00.489Z,99.00
2019-02-20T19:48:35.009Z,99.90
2019-02-20T19:51:25.808Z,99.90
2019-02-20T19:54:12.555Z,99.90
2019-02-20T19:56:44.269Z,99.90
2019-02-20T19:59:31.022Z,99.90
2019-02-20T20:02:27.744Z,99.90
2019-02-20T20:05:13.475Z,99.90
2019-02-20T20:08:14.245Z,99.90
2019-02-20T20:10:45.932Z,99.90
2019-02-20T20:13:29.497Z,99.90
2019-02-20T20:16:19.020Z,99.90
2019-02-20T20:19:10.128Z,99.90
2019-02-20T20:21:47.696Z,99.90
2019-02-20T20:24:51.021Z,99.90
2019-02-20T20:27:38.981Z,99.90
2019-02-20T20:30:22.810Z,99.90
2019-02-20T20:33:18.545Z,99.90
2019-02-20T20:36:14.222Z,99.90
2019-02-20T20:39:00.725Z,99.90
2019-02-20T20:42:04.242Z,99.90
2019-02-20T20:44:48.046Z,99.90
2019-02-20T20:47:25.072Z,99.90
2019-02-20T20:49:58.854Z,99.90
2019-02-20T20:52:46.986Z,99.90
2019-02-20T20:55:35.526Z,99.90
2019-02-20T20:58:25.098Z,99.90
2019-02-20T21:01:18.239Z,99.90
2019-02-20T21:03:58.958Z,99.90
2019-02-20T21:06:39.266Z,99.60
2019-02-20T21:09:11.929Z,98.80
2019-02-20T21:11:58.142Z,98.50
2019-02-20T21:14:56.874Z,99.90
2019-02-20T21:17:28.622Z,99.90
2019-02-20T21:20:27.668Z,99.90
2019-02-20T21:23:02.311Z,99.30
2019-02-20T21:26:06.991Z,98.90
2019-02-20T21:28:58.614Z,99.00
2019-02-20T21:31:32.947Z,99.90
2019-02-20T21:34:10.425Z,98.90
2019-02-20T21:36:44.768Z,98.20
2019-02-20T21:39:48.561Z,97.70
2019-02-20T21:42:32.290Z,98.60
2019-02-20T21:45:22.212Z,98.40
2019-02-20T21:48:02.630Z,98.10
2019-02-20T21:50:37.258Z,99.90
2019-02-20T21:53:17.780Z,99.90
2019-02-20T21:56:16.724Z,99.90
2019-02-20T21:59:00.290Z,99.90
2019-02-20T22:01:57.942Z,99.10
2019-02-20T22:04:50.255Z,98.20
2019-02-20T22:07:36.870Z,98.40
2019-02-20T22:10:23.389Z,98.20
2019-02-20T22:13:06.895Z,99.70
2019-02-20T22:15:38.568Z,99.70
2019-02-20T22:18:28.372Z,99.40
2019-02-20T22:21:48.059Z,97.90
2019-02-20T22:24:19.728Z,98.20
2019-02-20T22:26:51.514Z,99.10
2019-02-20T22:29:49.515Z,98.20
2019-02-20T22:32:15.830Z,97.70
2019-02-20T22:35:05.656Z,97.30
2019-02-20T22:37:55.222Z,97.70
2019-02-20T22:40:45.079Z,97.80
2019-02-20T22:43:39.518Z,97.60
2019-02-20T22:46:19.716Z,98.60
2019-02-20T22:48:57.350Z,99.30
2019-02-20T22:51:29.074Z,99.50
2019-02-20T22:54:06.503Z,99.80
2019-02-20T22:57:08.002Z,99.90
2019-02-20T22:59:42.779Z,99.40
2019-02-20T23:02:44.835Z,99.20
2019-02-20T23:05:19.457Z,99.10
2019-02-20T23:08:03.163Z,99.00
2019-02-20T23:10:49.982Z,99.60
2019-02-20T23:13:24.475Z,99.90
2019-02-20T23:15:53.111Z,99.90
2019-02-20T23:18:21.695Z,99.90
2019-02-20T23:20:50.262Z,99.90
2019-02-20T23:23:18.840Z,99.90
2019-02-20T23:25:47.403Z,99.90
2019-02-20T23:28:16.142Z,99.90
2019-02-20T23:30:45.208Z,99.90
2019-02-20T23:33:13.942Z,99.90
2019-02-20T23:35:42.595Z,99.90
2019-02-20T23:38:11.158Z,99.90
2019-02-20T23:40:39.734Z,99.80
2019-02-20T23:43:08.306Z,99.90
2019-02-20T23:45:36.950Z,99.90
2019-02-20T23:48:06.157Z,99.90
2019-02-20T23:50:34.734Z,99.90
2019-02-20T23:53:03.294Z,99.90
2019-02-20T23:55:31.946Z,99.90
2019-02-20T23:58:00.662Z,99.90
